createdAt,value
2019-06-27T00:00:27.156Z,8.85
2019-06-27T00:01:00.791Z,9.40
2019-06-27T00:01:34.747Z,9.48
2019-06-27T00:02:08.750Z,8.78
2019-06-27T00:02:42.365Z,9.48
2019-06-27T00:03:16.330Z,9.58
2019-06-27T00:03:50.417Z,9.38
2019-06-27T00:04:23.950Z,7.80
2019-06-27T00:04:57.939Z,8.80
2019-06-27T00:05:31.988Z,9.55
2019-06-27T00:06:05.535Z,9.13
2019-06-27T00:06:39.529Z,9.60
2019-06-27T00:07:13.549Z,10.00
2019-06-27T00:07:47.482Z,9.80
2019-06-27T00:08:21.390Z,8.60
2019-06-27T00:08:55.362Z,9.60
2019-06-27T00:09:28.966Z,8.75
2019-06-27T00:10:03.628Z,9.20
2019-06-27T00:10:37.787Z,9.75
2019-06-27T00:11:11.319Z,8.75
2019-06-27T00:11:45.164Z,8.90
2019-06-27T00:12:19.069Z,9.28
2019-06-27T00:12:52.646Z,8.58
2019-06-27T00:13:26.682Z,8.93
2019-06-27T00:14:00.590Z,8.60
2019-06-27T00:14:34.137Z,9.30
2019-06-27T00:15:08.211Z,8.83
2019-06-27T00:15:42.121Z,8.20
2019-06-27T00:16:15.721Z,9.40
2019-06-27T00:16:49.789Z,10.10
2019-06-27T00:17:23.760Z,8.28
2019-06-27T00:17:57.312Z,8.80
2019-06-27T00:18:31.298Z,8.75
2019-06-27T00:19:05.239Z,8.60
2019-06-27T00:19:38.833Z,9.60
2019-06-27T00:20:12.983Z,8.45
2019-06-27T00:20:46.890Z,8.65
2019-06-27T00:21:20.533Z,9.35
2019-06-27T00:21:55.106Z,7.78
2019-06-27T00:22:29.047Z,8.40
2019-06-27T00:23:02.598Z,9.70
2019-06-27T00:23:36.517Z,9.40
2019-06-27T00:24:10.429Z,8.28
2019-06-27T00:24:43.980Z,9.35
2019-06-27T00:25:17.865Z,9.15
2019-06-27T00:25:51.873Z,8.78
2019-06-27T00:26:25.401Z,8.00
2019-06-27T00:26:59.298Z,9.15
2019-06-27T00:27:34.627Z,7.15
2019-06-27T00:28:09.952Z,7.65
2019-06-27T00:28:44.357Z,8.10
2019-06-27T00:29:21.007Z,8.25
2019-06-27T00:29:54.608Z,7.80
2019-06-27T00:30:28.537Z,7.70
2019-06-27T00:31:07.509Z,7.70
2019-06-27T00:31:41.072Z,8.15
2019-06-27T00:32:15.051Z,8.63
2019-06-27T00:32:48.971Z,7.70
2019-06-27T00:33:22.609Z,8.55
2019-06-27T00:33:56.583Z,7.58
2019-06-27T00:34:30.569Z,7.92
2019-06-27T00:35:04.807Z,8.63
2019-06-27T00:35:38.733Z,8.25
2019-06-27T00:36:12.671Z,8.85
2019-06-27T00:36:46.210Z,7.97
2019-06-27T00:37:20.123Z,7.25
2019-06-27T00:37:54.112Z,7.50
2019-06-27T00:38:27.711Z,8.65
2019-06-27T00:39:01.731Z,6.83
2019-06-27T00:39:35.659Z,7.17
2019-06-27T00:40:09.220Z,7.10
2019-06-27T00:40:43.187Z,7.10
2019-06-27T00:41:17.148Z,6.75
2019-06-27T00:41:50.831Z,6.28
2019-06-27T00:42:24.829Z,6.58
2019-06-27T00:42:58.827Z,7.00
2019-06-27T00:43:32.655Z,6.70
2019-06-27T00:44:06.671Z,6.87
2019-06-27T00:44:40.577Z,6.60
2019-06-27T00:45:14.094Z,7.17
2019-06-27T00:45:48.031Z,6.87
2019-06-27T00:46:22.012Z,6.75
2019-06-27T00:46:55.600Z,7.72
2019-06-27T00:47:29.557Z,7.30
2019-06-27T00:48:03.508Z,6.67
2019-06-27T00:48:37.179Z,6.92
2019-06-27T00:49:11.174Z,6.85
2019-06-27T00:49:45.072Z,6.62
2019-06-27T00:50:18.583Z,7.58
2019-06-27T00:50:52.472Z,7.10
2019-06-27T00:51:26.460Z,7.00
2019-06-27T00:51:59.988Z,6.83
2019-06-27T00:52:33.890Z,7.10
2019-06-27T00:53:07.810Z,6.40
2019-06-27T00:53:41.493Z,5.95
2019-06-27T00:54:15.524Z,6.47
2019-06-27T00:54:49.438Z,6.33
2019-06-27T00:55:23.050Z,6.40
2019-06-27T00:55:57.047Z,6.50
2019-06-27T00:56:30.950Z,6.97
2019-06-27T00:57:13.943Z,7.95
2019-06-27T00:57:40.556Z,6.90
2019-06-27T00:58:14.689Z,7.30
2019-06-27T00:58:48.230Z,7.47
2019-06-27T00:59:22.145Z,7.15
2019-06-27T00:59:56.184Z,6.58
2019-06-27T01:00:29.985Z,6.65
2019-06-27T01:01:04.010Z,6.85
2019-06-27T01:01:37.965Z,6.95
2019-06-27T01:02:11.523Z,7.12
2019-06-27T01:02:45.520Z,5.92
2019-06-27T01:03:20.830Z,6.22
2019-06-27T01:03:54.477Z,7.35
2019-06-27T01:04:28.476Z,7.08
2019-06-27T01:05:02.469Z,7.47
2019-06-27T01:05:36.097Z,6.75
2019-06-27T01:06:10.091Z,6.72
2019-06-27T01:06:44.038Z,7.10
2019-06-27T01:07:17.734Z,5.60
2019-06-27T01:07:51.660Z,5.83
2019-06-27T01:08:25.647Z,7.10
2019-06-27T01:08:59.298Z,6.87
2019-06-27T01:09:33.223Z,7.10
2019-06-27T01:10:07.121Z,7.20
2019-06-27T01:10:40.638Z,6.30
2019-06-27T01:11:14.565Z,7.40
2019-06-27T01:11:48.548Z,6.30
2019-06-27T01:12:22.117Z,6.08
2019-06-27T01:12:56.092Z,7.17
2019-06-27T01:13:29.991Z,6.78
2019-06-27T01:14:03.860Z,6.92
2019-06-27T01:14:37.860Z,6.90
2019-06-27T01:15:12.124Z,5.97
2019-06-27T01:15:45.665Z,6.30
2019-06-27T01:16:19.637Z,5.83
2019-06-27T01:16:53.648Z,6.50
2019-06-27T01:17:27.265Z,5.28
2019-06-27T01:18:01.324Z,6.55
2019-06-27T01:18:35.289Z,6.83
2019-06-27T01:19:08.846Z,5.95
2019-06-27T01:19:42.779Z,5.58
2019-06-27T01:20:35.988Z,5.30
2019-06-27T01:21:09.551Z,6.25
2019-06-27T01:22:02.590Z,7.28
2019-06-27T01:22:36.566Z,5.62
2019-06-27T01:23:10.130Z,5.83
2019-06-27T01:23:45.157Z,6.40
2019-06-27T01:24:19.248Z,6.15
2019-06-27T01:24:52.749Z,5.45
2019-06-27T01:25:26.679Z,5.47
2019-06-27T01:26:00.668Z,5.42
2019-06-27T01:26:34.378Z,6.12
2019-06-27T01:27:08.385Z,5.80
2019-06-27T01:27:42.286Z,6.55
2019-06-27T01:28:15.821Z,5.87
2019-06-27T01:28:49.767Z,5.50
2019-06-27T01:29:23.761Z,6.75
2019-06-27T01:29:57.291Z,5.87
2019-06-27T01:30:31.200Z,5.58
2019-06-27T01:31:05.475Z,5.22
2019-06-27T01:31:39.012Z,7.05
2019-06-27T01:32:12.950Z,4.95
2019-06-27T01:32:46.904Z,5.95
2019-06-27T01:33:20.466Z,5.65
2019-06-27T01:33:55.433Z,5.62
2019-06-27T01:34:29.341Z,5.12
2019-06-27T01:35:04.300Z,6.87
2019-06-27T01:35:57.799Z,5.05
2019-06-27T01:36:31.772Z,5.65
2019-06-27T01:37:05.287Z,4.83
2019-06-27T01:37:39.175Z,4.47
2019-06-27T01:38:13.088Z,5.55
2019-06-27T01:38:46.629Z,6.10
2019-06-27T01:39:20.646Z,5.55
2019-06-27T01:39:54.551Z,5.75
2019-06-27T01:40:28.108Z,4.80
2019-06-27T01:41:02.012Z,4.83
2019-06-27T01:41:35.999Z,6.47
2019-06-27T01:42:09.591Z,5.85
2019-06-27T01:42:43.537Z,5.70
2019-06-27T01:43:17.462Z,5.58
2019-06-27T01:43:52.489Z,5.60
2019-06-27T01:44:39.262Z,5.20
2019-06-27T01:45:24.428Z,4.95
2019-06-27T01:45:58.605Z,5.60
2019-06-27T01:46:32.540Z,5.50
2019-06-27T01:47:06.674Z,4.37
2019-06-27T01:47:40.299Z,5.08
2019-06-27T01:48:14.176Z,5.58
2019-06-27T01:48:48.080Z,4.58
2019-06-27T01:49:21.714Z,4.95
2019-06-27T01:49:57.171Z,4.30
2019-06-27T01:50:31.109Z,5.85
2019-06-27T01:51:04.692Z,5.33
2019-06-27T01:51:38.716Z,4.83
2019-06-27T01:52:12.673Z,4.95
2019-06-27T01:52:46.194Z,5.22
2019-06-27T01:53:20.199Z,5.28
2019-06-27T01:53:54.219Z,3.98
2019-06-27T01:54:27.783Z,2.75
2019-06-27T01:55:01.764Z,4.85
2019-06-27T01:55:35.680Z,4.75
2019-06-27T01:56:09.202Z,3.65
2019-06-27T01:56:43.131Z,4.90
2019-06-27T01:57:17.048Z,4.40
2019-06-27T01:57:50.671Z,4.83
2019-06-27T01:58:24.589Z,4.62
2019-06-27T01:58:58.577Z,4.70
2019-06-27T01:59:32.148Z,4.45
2019-06-27T02:00:06.508Z,4.28
2019-06-27T02:00:40.450Z,4.65
2019-06-27T02:01:13.943Z,4.00
2019-06-27T02:01:47.856Z,3.98
2019-06-27T02:02:21.857Z,4.17
2019-06-27T02:02:55.457Z,4.50
2019-06-27T02:03:29.360Z,3.72
2019-06-27T02:04:03.268Z,4.10
2019-06-27T02:04:37.834Z,4.70
2019-06-27T02:05:30.845Z,3.98
2019-06-27T02:06:52.766Z,3.85
2019-06-27T02:07:26.658Z,4.15
2019-06-27T02:08:00.562Z,3.87
2019-06-27T02:08:34.201Z,4.42
2019-06-27T02:09:08.302Z,3.83
2019-06-27T02:09:42.254Z,4.45
2019-06-27T02:10:16.018Z,4.15
2019-06-27T02:10:49.941Z,3.95
2019-06-27T02:11:23.923Z,3.20
2019-06-27T02:11:57.502Z,3.60
2019-06-27T02:12:31.482Z,4.10
2019-06-27T02:13:05.412Z,3.85
2019-06-27T02:13:38.969Z,4.10
2019-06-27T02:14:12.920Z,3.95
2019-06-27T02:14:46.921Z,3.90
2019-06-27T02:15:22.323Z,3.90
2019-06-27T02:15:56.481Z,4.60
2019-06-27T02:16:30.490Z,3.87
2019-06-27T02:17:03.974Z,4.30
2019-06-27T02:17:38.076Z,3.60
2019-06-27T02:18:12.074Z,4.10
2019-06-27T02:18:45.583Z,3.72
2019-06-27T02:19:20.192Z,4.58
2019-06-27T02:19:54.085Z,4.08
2019-06-27T02:20:27.629Z,4.53
2019-06-27T02:21:01.545Z,3.70
2019-06-27T02:21:35.475Z,4.10
2019-06-27T02:22:09.095Z,4.50
2019-06-27T02:22:43.067Z,3.40
2019-06-27T02:23:17.042Z,4.67
2019-06-27T02:23:50.645Z,3.95
2019-06-27T02:24:24.620Z,4.28
2019-06-27T02:24:58.609Z,4.28
2019-06-27T02:25:32.163Z,3.98
2019-06-27T02:26:06.117Z,3.80
2019-06-27T02:26:39.984Z,3.90
2019-06-27T02:27:13.499Z,3.90
2019-06-27T02:28:02.626Z,4.33
2019-06-27T02:28:23.125Z,3.90
2019-06-27T02:28:56.651Z,3.42
2019-06-27T02:29:30.611Z,3.70
2019-06-27T02:30:04.618Z,4.22
2019-06-27T02:30:39.251Z,4.20
2019-06-27T02:31:13.151Z,4.05
2019-06-27T02:31:47.071Z,4.58
2019-06-27T02:32:20.597Z,3.65
2019-06-27T02:32:54.504Z,3.98
2019-06-27T02:33:28.523Z,3.90
2019-06-27T02:34:06.511Z,4.05
2019-06-27T02:34:37.810Z,4.10
2019-06-27T02:35:11.886Z,4.20
2019-06-27T02:35:45.400Z,3.50
2019-06-27T02:36:38.396Z,3.27
2019-06-27T02:37:12.366Z,4.08
2019-06-27T02:37:45.952Z,3.75
2019-06-27T02:38:22.788Z,3.83
2019-06-27T02:39:00.363Z,3.50
2019-06-27T02:39:34.250Z,3.90
2019-06-27T02:40:08.388Z,4.08
2019-06-27T02:40:42.432Z,3.58
2019-06-27T02:41:20.106Z,3.83
2019-06-27T02:41:54.191Z,3.40
2019-06-27T02:42:28.172Z,3.75
2019-06-27T02:43:01.974Z,3.50
2019-06-27T02:43:35.856Z,3.75
2019-06-27T02:44:09.805Z,4.55
2019-06-27T02:44:43.334Z,3.90
2019-06-27T02:45:17.333Z,3.95
2019-06-27T02:45:51.370Z,3.80
2019-06-27T02:46:25.002Z,4.70
2019-06-27T02:46:58.911Z,3.30
2019-06-27T02:47:32.820Z,3.42
2019-06-27T02:48:06.315Z,3.80
2019-06-27T02:48:40.191Z,3.83
2019-06-27T02:49:14.120Z,3.55
2019-06-27T02:49:50.516Z,4.00
2019-06-27T02:50:24.511Z,3.65
2019-06-27T02:50:58.526Z,3.65
2019-06-27T02:51:32.092Z,4.20
2019-06-27T02:52:06.137Z,4.05
2019-06-27T02:52:40.087Z,4.12
2019-06-27T02:53:13.611Z,4.37
2019-06-27T02:53:47.574Z,4.08
2019-06-27T02:54:21.486Z,4.37
2019-06-27T02:54:55.229Z,4.25
2019-06-27T02:55:29.691Z,3.80
2019-06-27T02:56:03.647Z,4.60
2019-06-27T02:56:37.169Z,4.65
2019-06-27T02:57:11.087Z,3.60
2019-06-27T02:57:45.088Z,3.67
2019-06-27T02:58:30.099Z,3.60
2019-06-27T02:58:54.404Z,4.42
2019-06-27T02:59:28.392Z,3.85
2019-06-27T03:00:02.075Z,4.30
2019-06-27T03:00:36.061Z,3.45
2019-06-27T03:01:09.963Z,4.25
2019-06-27T03:01:43.540Z,4.05
2019-06-27T03:02:17.483Z,3.83
2019-06-27T03:02:51.478Z,3.92
2019-06-27T03:03:25.003Z,3.92
2019-06-27T03:03:58.887Z,3.90
2019-06-27T03:04:32.890Z,3.70
2019-06-27T03:05:06.821Z,4.15
2019-06-27T03:05:40.735Z,4.15
2019-06-27T03:06:14.686Z,4.08
2019-06-27T03:06:48.296Z,4.37
2019-06-27T03:07:22.200Z,4.03
2019-06-27T03:07:56.164Z,3.77
2019-06-27T03:08:29.671Z,4.22
2019-06-27T03:09:03.972Z,3.75
2019-06-27T03:09:37.899Z,3.50
2019-06-27T03:10:11.899Z,3.45
2019-06-27T03:10:45.807Z,3.72
2019-06-27T03:11:19.868Z,4.28
2019-06-27T03:11:53.461Z,3.65
2019-06-27T03:12:27.493Z,3.25
2019-06-27T03:13:01.370Z,3.72
2019-06-27T03:13:34.906Z,4.40
2019-06-27T03:14:08.902Z,4.20
2019-06-27T03:14:42.844Z,3.40
2019-06-27T03:15:16.479Z,3.50
2019-06-27T03:15:50.637Z,3.75
2019-06-27T03:16:24.555Z,3.50
2019-06-27T03:16:58.160Z,3.80
2019-06-27T03:17:32.087Z,4.42
2019-06-27T03:18:05.989Z,3.45
2019-06-27T03:18:39.514Z,4.10
2019-06-27T03:19:13.402Z,4.70
2019-06-27T03:19:47.313Z,4.35
2019-06-27T03:20:20.822Z,3.77
2019-06-27T03:20:54.783Z,4.10
2019-06-27T03:21:28.859Z,3.80
2019-06-27T03:22:05.658Z,4.30
2019-06-27T03:22:38.009Z,3.90
2019-06-27T03:23:12.026Z,3.95
2019-06-27T03:23:45.534Z,4.22
2019-06-27T03:24:19.519Z,4.55
2019-06-27T03:24:53.507Z,4.58
2019-06-27T03:25:27.083Z,3.90
2019-06-27T03:26:00.998Z,3.67
2019-06-27T03:26:34.894Z,4.50
2019-06-27T03:27:08.428Z,3.92
2019-06-27T03:27:42.395Z,4.08
2019-06-27T03:28:16.379Z,3.85
2019-06-27T03:28:53.557Z,4.00
2019-06-27T03:29:25.751Z,3.95
2019-06-27T03:29:59.667Z,4.67
2019-06-27T03:30:33.310Z,4.05
2019-06-27T03:31:07.415Z,3.98
2019-06-27T03:31:41.515Z,4.10
2019-06-27T03:32:15.264Z,3.65
2019-06-27T03:32:49.950Z,4.80
2019-06-27T03:33:23.949Z,3.90
2019-06-27T03:33:57.602Z,3.72
2019-06-27T03:34:31.517Z,4.20
2019-06-27T03:35:05.762Z,3.75
2019-06-27T03:35:41.990Z,3.75
2019-06-27T03:36:15.932Z,4.05
2019-06-27T03:36:50.096Z,3.95
2019-06-27T03:37:23.645Z,4.03
2019-06-27T03:37:57.583Z,4.15
2019-06-27T03:38:31.505Z,3.62
2019-06-27T03:39:06.021Z,3.30
2019-06-27T03:39:40.008Z,4.00
2019-06-27T03:40:14.698Z,4.42
2019-06-27T03:40:48.224Z,3.47
2019-06-27T03:41:22.130Z,3.85
2019-06-27T03:41:56.006Z,4.45
2019-06-27T03:42:29.517Z,3.70
2019-06-27T03:43:03.412Z,3.17
2019-06-27T03:43:37.502Z,3.83
2019-06-27T03:44:11.076Z,3.83
2019-06-27T03:44:45.079Z,4.30
2019-06-27T03:45:19.078Z,3.87
2019-06-27T03:45:52.639Z,3.80
2019-06-27T03:46:26.609Z,3.90
2019-06-27T03:47:09.200Z,3.50
2019-06-27T03:47:42.845Z,3.90
2019-06-27T03:48:16.766Z,4.85
2019-06-27T03:48:50.712Z,3.27
2019-06-27T03:49:24.219Z,3.85
2019-06-27T03:49:58.138Z,3.87
2019-06-27T03:50:32.131Z,4.15
2019-06-27T03:51:05.691Z,3.65
2019-06-27T03:51:39.645Z,3.17
2019-06-27T03:52:13.566Z,3.60
2019-06-27T03:52:47.072Z,3.20
2019-06-27T03:53:21.023Z,3.35
2019-06-27T03:53:55.180Z,3.72
2019-06-27T03:54:28.755Z,3.45
2019-06-27T03:55:02.677Z,3.42
2019-06-27T03:55:36.604Z,2.85
2019-06-27T03:56:10.164Z,2.80
2019-06-27T03:56:44.140Z,3.40
2019-06-27T03:57:22.471Z,3.65
2019-06-27T03:57:56.145Z,3.30
2019-06-27T03:58:30.147Z,2.70
2019-06-27T03:59:12.260Z,3.77
2019-06-27T03:59:39.485Z,3.00
2019-06-27T04:00:32.566Z,3.47
2019-06-27T04:01:06.595Z,3.27
2019-06-27T04:01:40.176Z,3.30
2019-06-27T04:02:14.145Z,3.70
2019-06-27T04:02:48.192Z,3.02
2019-06-27T04:03:21.703Z,3.77
2019-06-27T04:03:55.753Z,4.25
2019-06-27T04:04:29.965Z,3.10
2019-06-27T04:05:05.367Z,3.20
2019-06-27T04:05:39.343Z,3.58
2019-06-27T04:06:13.242Z,3.90
2019-06-27T04:06:46.778Z,3.02
2019-06-27T04:07:20.731Z,2.95
2019-06-27T04:07:54.642Z,2.80
2019-06-27T04:08:28.173Z,3.47
2019-06-27T04:09:02.185Z,3.72
2019-06-27T04:09:36.210Z,3.15
2019-06-27T04:10:09.745Z,3.33
2019-06-27T04:10:43.642Z,3.20
2019-06-27T04:11:17.607Z,3.33
2019-06-27T04:11:51.189Z,4.22
2019-06-27T04:12:25.156Z,3.52
2019-06-27T04:12:59.124Z,2.65
2019-06-27T04:13:32.712Z,3.52
2019-06-27T04:14:06.656Z,3.70
2019-06-27T04:14:40.648Z,3.67
2019-06-27T04:15:15.256Z,2.80
2019-06-27T04:15:49.181Z,4.30
2019-06-27T04:16:23.067Z,3.45
2019-06-27T04:16:56.589Z,3.83
2019-06-27T04:17:30.489Z,3.02
2019-06-27T04:18:04.755Z,3.67
2019-06-27T04:18:38.265Z,3.47
2019-06-27T04:19:12.163Z,4.33
2019-06-27T04:19:46.116Z,3.60
2019-06-27T04:20:19.644Z,3.30
2019-06-27T04:20:53.544Z,3.37
2019-06-27T04:21:27.483Z,3.27
2019-06-27T04:22:01.071Z,3.60
2019-06-27T04:22:35.001Z,4.12
2019-06-27T04:23:08.944Z,3.67
2019-06-27T04:23:42.496Z,3.50
2019-06-27T04:24:16.415Z,4.20
2019-06-27T04:24:50.328Z,3.25
2019-06-27T04:25:24.033Z,3.17
2019-06-27T04:25:57.962Z,3.30
2019-06-27T04:26:32.055Z,3.40
2019-06-27T04:27:05.608Z,3.60
2019-06-27T04:27:39.496Z,3.30
2019-06-27T04:28:13.372Z,3.60
2019-06-27T04:28:46.987Z,3.47
2019-06-27T04:29:32.759Z,3.40
2019-06-27T04:29:56.573Z,3.58
2019-06-27T04:30:30.106Z,3.72
2019-06-27T04:31:04.067Z,4.03
2019-06-27T04:31:37.983Z,3.77
2019-06-27T04:32:11.502Z,3.85
2019-06-27T04:32:45.949Z,3.60
2019-06-27T04:33:19.886Z,3.30
2019-06-27T04:33:53.400Z,3.55
2019-06-27T04:34:27.355Z,3.20
2019-06-27T04:35:01.431Z,3.27
2019-06-27T04:35:34.881Z,4.15
2019-06-27T04:36:08.887Z,4.12
2019-06-27T04:36:43.243Z,3.55
2019-06-27T04:37:16.782Z,3.85
2019-06-27T04:37:50.686Z,2.62
2019-06-27T04:38:24.609Z,3.35
2019-06-27T04:38:58.136Z,4.50
2019-06-27T04:39:32.140Z,4.10
2019-06-27T04:40:06.641Z,3.27
2019-06-27T04:40:40.191Z,4.08
2019-06-27T04:41:14.157Z,3.52
2019-06-27T04:41:48.138Z,4.15
2019-06-27T04:42:21.731Z,3.90
2019-06-27T04:42:55.627Z,3.62
2019-06-27T04:43:29.542Z,2.87
2019-06-27T04:44:03.068Z,3.15
2019-06-27T04:44:36.980Z,3.30
2019-06-27T04:45:11.107Z,3.85
2019-06-27T04:45:44.693Z,3.42
2019-06-27T04:46:18.697Z,3.52
2019-06-27T04:46:52.617Z,3.65
2019-06-27T04:47:26.146Z,3.70
2019-06-27T04:48:00.045Z,3.65
2019-06-27T04:48:34.043Z,2.95
2019-06-27T04:49:12.999Z,4.70
2019-06-27T04:50:02.448Z,3.50
2019-06-27T04:50:36.550Z,2.98
2019-06-27T04:51:10.136Z,3.33
2019-06-27T04:51:44.079Z,3.30
2019-06-27T04:52:17.990Z,3.15
2019-06-27T04:52:51.666Z,3.35
2019-06-27T04:53:25.594Z,3.27
2019-06-27T04:53:59.486Z,3.22
2019-06-27T04:54:33.025Z,3.77
2019-06-27T04:55:07.292Z,3.35
2019-06-27T04:55:41.306Z,3.85
2019-06-27T04:56:14.901Z,3.55
2019-06-27T04:56:56.139Z,3.20
2019-06-27T04:57:30.129Z,3.37
2019-06-27T04:58:03.698Z,3.45
2019-06-27T04:58:37.615Z,3.80
2019-06-27T04:59:11.528Z,4.10
2019-06-27T04:59:53.470Z,3.25
2019-06-27T05:00:24.447Z,4.45
2019-06-27T05:00:58.649Z,3.65
2019-06-27T05:01:32.186Z,3.30
2019-06-27T05:02:06.082Z,3.55
2019-06-27T05:02:39.936Z,3.20
2019-06-27T05:03:13.534Z,3.60
2019-06-27T05:03:47.491Z,3.70
2019-06-27T05:04:21.401Z,3.65
2019-06-27T05:04:54.962Z,3.90
2019-06-27T05:05:29.116Z,4.78
2019-06-27T05:06:03.104Z,3.65
2019-06-27T05:06:36.728Z,4.37
2019-06-27T05:07:10.743Z,3.25
2019-06-27T05:07:44.667Z,4.12
2019-06-27T05:08:18.330Z,4.03
2019-06-27T05:08:52.336Z,3.12
2019-06-27T05:09:26.372Z,3.30
2019-06-27T05:09:59.862Z,3.58
2019-06-27T05:10:33.802Z,3.62
2019-06-27T05:11:07.717Z,3.15
2019-06-27T05:11:41.392Z,3.75
2019-06-27T05:12:15.471Z,3.65
2019-06-27T05:12:49.379Z,2.80
2019-06-27T05:13:22.984Z,3.25
2019-06-27T05:13:56.886Z,2.95
2019-06-27T05:14:32.616Z,3.70
2019-06-27T05:15:06.193Z,3.33
2019-06-27T05:15:40.602Z,3.65
2019-06-27T05:16:14.676Z,4.08
2019-06-27T05:16:48.297Z,3.40
2019-06-27T05:17:22.198Z,3.20
2019-06-27T05:17:56.097Z,4.12
2019-06-27T05:18:29.610Z,3.60
2019-06-27T05:19:03.586Z,4.05
2019-06-27T05:19:37.755Z,3.37
2019-06-27T05:20:11.369Z,4.50
2019-06-27T05:20:45.296Z,4.05
2019-06-27T05:21:19.333Z,3.98
2019-06-27T05:21:56.181Z,3.67
2019-06-27T05:22:30.179Z,4.22
2019-06-27T05:23:04.187Z,3.95
2019-06-27T05:23:37.816Z,3.65
2019-06-27T05:24:11.783Z,3.87
2019-06-27T05:24:45.729Z,3.02
2019-06-27T05:25:19.370Z,4.20
2019-06-27T05:25:53.367Z,3.98
2019-06-27T05:26:27.338Z,3.25
2019-06-27T05:27:00.975Z,3.83
2019-06-27T05:27:34.872Z,3.72
2019-06-27T05:28:08.830Z,3.60
2019-06-27T05:28:42.467Z,3.65
2019-06-27T05:29:16.626Z,3.98
2019-06-27T05:29:50.622Z,3.17
2019-06-27T05:30:24.251Z,3.40
2019-06-27T05:30:58.294Z,4.10
2019-06-27T05:31:32.408Z,3.33
2019-06-27T05:32:06.021Z,3.35
2019-06-27T05:32:39.999Z,4.67
2019-06-27T05:33:13.973Z,3.55
2019-06-27T05:33:48.042Z,3.05
2019-06-27T05:34:21.940Z,3.17
2019-06-27T05:34:55.902Z,4.05
2019-06-27T05:35:29.505Z,4.05
2019-06-27T05:36:04.469Z,5.22
2019-06-27T05:36:38.589Z,3.10
2019-06-27T05:37:12.178Z,3.10
2019-06-27T05:37:46.283Z,3.40
2019-06-27T05:38:20.405Z,3.40
2019-06-27T05:38:53.977Z,3.62
2019-06-27T05:39:28.236Z,3.50
2019-06-27T05:40:02.221Z,3.58
2019-06-27T05:40:35.810Z,3.58
2019-06-27T05:41:10.330Z,3.20
2019-06-27T05:41:44.362Z,3.58
2019-06-27T05:42:17.951Z,3.45
2019-06-27T05:42:51.998Z,4.75
2019-06-27T05:43:26.006Z,3.92
2019-06-27T05:43:59.608Z,4.62
2019-06-27T05:44:33.587Z,3.47
2019-06-27T05:45:07.586Z,3.62
2019-06-27T05:45:41.247Z,3.95
2019-06-27T05:46:15.228Z,3.50
2019-06-27T05:46:49.114Z,3.72
2019-06-27T05:47:22.692Z,3.52
2019-06-27T05:47:56.878Z,4.37
2019-06-27T05:48:30.898Z,3.60
2019-06-27T05:49:04.429Z,3.40
2019-06-27T05:49:38.354Z,3.72
2019-06-27T05:50:12.346Z,3.35
2019-06-27T05:50:45.959Z,4.12
2019-06-27T05:51:19.970Z,3.80
2019-06-27T05:51:53.904Z,3.30
2019-06-27T05:52:27.518Z,3.72
2019-06-27T05:53:01.522Z,3.58
2019-06-27T05:53:35.613Z,4.03
2019-06-27T05:54:09.180Z,3.90
2019-06-27T05:54:43.220Z,4.17
2019-06-27T05:55:17.341Z,3.98
2019-06-27T05:55:52.172Z,3.50
2019-06-27T05:56:26.148Z,4.30
2019-06-27T05:57:00.213Z,3.95
2019-06-27T05:57:33.798Z,4.03
2019-06-27T05:58:07.797Z,4.08
2019-06-27T05:58:44.556Z,3.55
2019-06-27T05:59:18.100Z,3.25
2019-06-27T05:59:52.169Z,3.50
2019-06-27T06:00:28.683Z,4.00
2019-06-27T06:01:01.458Z,4.10
2019-06-27T06:01:35.475Z,3.33
2019-06-27T06:02:09.436Z,3.00
2019-06-27T06:02:43.020Z,4.37
2019-06-27T06:03:16.920Z,4.15
2019-06-27T06:03:50.887Z,3.85
2019-06-27T06:04:24.473Z,3.27
2019-06-27T06:04:58.496Z,6.03
2019-06-27T06:05:32.420Z,3.60
2019-06-27T06:06:06.953Z,3.70
2019-06-27T06:06:41.884Z,4.10
2019-06-27T06:07:15.995Z,3.75
2019-06-27T06:07:49.575Z,4.10
2019-06-27T06:08:23.667Z,3.83
2019-06-27T06:08:57.881Z,3.98
2019-06-27T06:09:33.028Z,4.75
2019-06-27T06:10:07.142Z,3.50
2019-06-27T06:10:41.147Z,3.95
2019-06-27T06:11:14.854Z,3.85
2019-06-27T06:11:48.760Z,3.75
2019-06-27T06:12:22.788Z,4.20
2019-06-27T06:12:56.426Z,3.65
2019-06-27T06:13:30.328Z,4.22
2019-06-27T06:14:04.428Z,3.95
2019-06-27T06:14:37.985Z,3.52
2019-06-27T06:15:11.954Z,3.92
2019-06-27T06:15:45.951Z,3.47
2019-06-27T06:16:19.602Z,3.42
2019-06-27T06:16:55.592Z,4.60
2019-06-27T06:17:29.667Z,4.75
2019-06-27T06:18:03.358Z,3.87
2019-06-27T06:18:37.370Z,3.90
2019-06-27T06:19:11.442Z,3.20
2019-06-27T06:19:45.034Z,4.10
2019-06-27T06:20:19.396Z,3.55
2019-06-27T06:20:56.201Z,4.17
2019-06-27T06:21:29.888Z,3.87
2019-06-27T06:22:03.898Z,3.75
2019-06-27T06:22:37.941Z,4.75
2019-06-27T06:23:11.600Z,4.20
2019-06-27T06:23:45.579Z,4.33
2019-06-27T06:24:19.469Z,4.05
2019-06-27T06:24:53.055Z,4.35
2019-06-27T06:25:26.977Z,3.65
2019-06-27T06:26:00.902Z,4.30
2019-06-27T06:26:34.514Z,3.80
2019-06-27T06:27:08.563Z,4.20
2019-06-27T06:27:47.043Z,3.60
2019-06-27T06:28:20.644Z,4.25
2019-06-27T06:28:54.785Z,3.80
2019-06-27T06:29:28.716Z,3.80
2019-06-27T06:30:02.508Z,3.90
2019-06-27T06:30:44.347Z,3.58
2019-06-27T06:31:12.203Z,3.40
2019-06-27T06:31:49.110Z,3.83
2019-06-27T06:32:21.581Z,4.22
2019-06-27T06:32:55.858Z,4.80
2019-06-27T06:33:29.855Z,3.42
2019-06-27T06:34:04.830Z,3.42
2019-06-27T06:34:38.906Z,4.03
2019-06-27T06:35:12.778Z,3.75
2019-06-27T06:35:46.818Z,3.95
2019-06-27T06:36:20.846Z,3.70
2019-06-27T06:36:54.456Z,3.95
2019-06-27T06:37:28.465Z,4.50
2019-06-27T06:38:02.915Z,4.10
2019-06-27T06:38:36.506Z,3.95
2019-06-27T06:39:10.511Z,4.50
2019-06-27T06:39:44.441Z,4.45
2019-06-27T06:40:18.212Z,4.20
2019-06-27T06:40:52.478Z,4.45
2019-06-27T06:41:26.566Z,3.85
2019-06-27T06:42:00.130Z,4.62
2019-06-27T06:42:34.229Z,4.33
2019-06-27T06:43:08.119Z,4.00
2019-06-27T06:43:42.212Z,4.28
2019-06-27T06:44:16.434Z,4.08
2019-06-27T06:44:50.484Z,4.53
2019-06-27T06:45:24.781Z,4.10
2019-06-27T06:45:58.842Z,3.67
2019-06-27T06:46:35.949Z,4.40
2019-06-27T06:47:13.000Z,4.15
2019-06-27T06:47:58.412Z,3.83
2019-06-27T06:48:33.928Z,3.80
2019-06-27T06:49:08.578Z,4.17
2019-06-27T06:49:46.008Z,3.30
2019-06-27T06:50:23.310Z,4.60
2019-06-27T06:50:55.562Z,4.20
2019-06-27T06:51:29.996Z,3.83
2019-06-27T06:52:05.516Z,4.62
2019-06-27T06:52:39.139Z,4.85
2019-06-27T06:53:13.291Z,4.37
2019-06-27T06:53:47.239Z,4.00
2019-06-27T06:54:21.062Z,3.40
2019-06-27T06:54:55.319Z,3.80
2019-06-27T06:55:29.402Z,3.83
2019-06-27T06:56:03.058Z,4.00
2019-06-27T06:56:37.285Z,4.62
2019-06-27T06:57:11.439Z,4.40
2019-06-27T06:58:41.357Z,4.05
2019-06-27T06:59:15.517Z,4.95
2019-06-27T06:59:49.842Z,4.08
2019-06-27T07:00:23.734Z,4.75
2019-06-27T07:01:01.928Z,4.20
2019-06-27T07:01:33.561Z,4.37
2019-06-27T07:02:08.701Z,3.85
2019-06-27T07:02:42.692Z,4.28
2019-06-27T07:03:16.872Z,4.40
2019-06-27T07:03:50.502Z,4.08
2019-06-27T07:04:24.546Z,4.40
2019-06-27T07:04:58.464Z,4.55
2019-06-27T07:05:32.168Z,4.50
2019-06-27T07:06:06.292Z,3.83
2019-06-27T07:06:40.387Z,5.85
2019-06-27T07:07:19.812Z,4.83
2019-06-27T07:07:55.252Z,5.47
2019-06-27T07:08:35.186Z,4.25
2019-06-27T07:09:08.795Z,4.87
2019-06-27T07:09:42.796Z,4.35
2019-06-27T07:10:16.908Z,4.60
2019-06-27T07:10:52.250Z,5.40
2019-06-27T07:11:26.291Z,4.35
2019-06-27T07:12:00.525Z,4.83
2019-06-27T07:12:34.470Z,4.30
2019-06-27T07:13:08.538Z,4.10
2019-06-27T07:13:42.584Z,4.00
2019-06-27T07:14:16.223Z,4.50
2019-06-27T07:14:50.250Z,4.15
2019-06-27T07:15:24.174Z,5.62
2019-06-27T07:15:57.930Z,3.62
2019-06-27T07:16:31.851Z,3.62
2019-06-27T07:17:05.951Z,3.92
2019-06-27T07:17:39.690Z,4.42
2019-06-27T07:18:13.693Z,3.58
2019-06-27T07:18:47.621Z,3.72
2019-06-27T07:19:21.158Z,3.40
2019-06-27T07:19:57.569Z,3.85
2019-06-27T07:20:31.058Z,4.03
2019-06-27T07:21:04.613Z,3.52
2019-06-27T07:21:39.495Z,3.75
2019-06-27T07:22:13.695Z,3.60
2019-06-27T07:22:47.308Z,4.28
2019-06-27T07:23:21.303Z,3.67
2019-06-27T07:23:55.484Z,3.80
2019-06-27T07:24:29.309Z,4.40
2019-06-27T07:25:03.420Z,4.17
2019-06-27T07:25:37.528Z,4.80
2019-06-27T07:26:13.132Z,3.72
2019-06-27T07:26:47.104Z,4.35
2019-06-27T07:27:21.076Z,4.83
2019-06-27T07:27:54.836Z,3.62
2019-06-27T07:28:28.960Z,4.62
2019-06-27T07:29:02.946Z,4.75
2019-06-27T07:29:36.478Z,3.87
2019-06-27T07:30:11.318Z,4.25
2019-06-27T07:30:47.625Z,3.98
2019-06-27T07:31:21.178Z,3.90
2019-06-27T07:31:55.250Z,3.65
2019-06-27T07:32:29.172Z,4.12
2019-06-27T07:33:02.707Z,4.10
2019-06-27T07:35:15.327Z,4.53
2019-06-27T07:36:08.928Z,4.95
2019-06-27T07:36:42.869Z,5.08
2019-06-27T07:37:16.828Z,4.53
2019-06-27T07:37:50.933Z,4.25
2019-06-27T07:38:24.857Z,4.17
2019-06-27T07:38:58.399Z,4.50
2019-06-27T07:39:32.506Z,4.10
2019-06-27T07:40:06.568Z,3.62